Time;durP1;ratioP1;P1;durP2;ratioP2;P2;SDS_P1;SDS_P2;PMS_P1;PMS_P2;Temp;Humidity;BMP_temperature;BMP_pressure;BME280_temperature;BME280_humidity;BME280_pressure;Samples;Min_cycle;Max_cycle;Signal;HPM_P1;HPM_P2
2022/03/03 00:01:07;;;;;;;32.42;21.65;;;;;;;1.19;100.00;99667.31;4979493;28;20294;-79
2022/03/03 00:03:34;;;;;;;35.78;22.67;;;;;;;1.22;100.00;99667.25;4972934;28;20227;-79
2022/03/03 00:06:00;;;;;;;32.00;21.80;;;;;;;1.31;100.00;99672.41;4971437;28;20225;-79
2022/03/03 00:08:27;;;;;;;31.67;21.77;;;;;;;1.23;100.00;99672.53;4971064;28;20606;-79
2022/03/03 00:10:55;;;;;;;30.77;21.75;;;;;;;1.20;100.00;99669.97;4968890;28;20192;-79
2022/03/03 00:13:21;;;;;;;31.00;22.50;;;;;;;0.98;100.00;99674.78;4981737;28;20258;-80
2022/03/03 00:15:48;;;;;;;35.95;22.85;;;;;;;1.03;100.00;99675.56;4978319;28;20274;-79
2022/03/03 00:18:15;;;;;;;36.72;23.98;;;;;;;1.04;100.00;99669.38;4977021;28;20192;-79
2022/03/03 00:20:41;;;;;;;38.72;23.65;;;;;;;1.16;100.00;99672.69;4971992;28;20592;-79
2022/03/03 00:23:08;;;;;;;34.05;24.58;;;;;;;1.22;100.00;99667.25;4970869;28;20232;-79
2022/03/03 00:25:35;;;;;;;33.22;23.23;;;;;;;1.40;100.00;99666.03;4979601;28;20714;-81
2022/03/03 00:28:04;;;;;;;36.95;24.52;;;;;;;1.28;100.00;99675.09;4969574;28;20201;-80
2022/03/03 00:30:31;;;;;;;34.67;23.33;;;;;;;1.21;100.00;99662.88;4973748;28;20263;-80
2022/03/03 00:32:58;;;;;;;35.58;23.83;;;;;;;1.38;100.00;99666.06;4973977;28;20296;-80
2022/03/03 00:35:25;;;;;;;34.00;23.60;;;;;;;1.24;100.00;99662.78;4972568;28;20232;-80
2022/03/03 00:37:51;;;;;;;34.17;22.65;;;;;;;1.06;100.00;99668.44;4970789;28;20189;-80
2022/03/03 00:40:19;;;;;;;35.30;23.15;;;;;;;0.90;100.00;99658.13;4971116;28;20389;-80
2022/03/03 00:42:45;;;;;;;34.05;23.25;;;;;;;1.04;100.00;99664.06;4982662;28;20587;-80
2022/03/03 00:45:13;;;;;;;38.17;24.25;;;;;;;1.16;100.00;99664.75;4975521;28;20224;-80
2022/03/03 00:47:40;;;;;;;40.00;25.17;;;;;;;1.23;100.00;99666.38;4962345;28;20641;-79
2022/03/03 00:50:07;;;;;;;35.67;24.25;;;;;;;1.08;100.00;99656.91;4973669;28;20201;-80
2022/03/03 00:52:34;;;;;;;33.80;23.40;;;;;;;1.03;100.00;99662.28;4974202;28;20691;-81
2022/03/03 00:55:01;;;;;;;35.97;25.83;;;;;;;0.82;100.00;99674.16;4975480;28;20616;-80
2022/03/03 00:57:28;;;;;;;36.97;24.25;;;;;;;0.64;100.00;99674.47;4981566;28;20196;-79
2022/03/03 00:59:54;;;;;;;37.35;24.60;;;;;;;0.83;100.00;99665.31;4965604;28;20196;-80
2022/03/03 01:02:22;;;;;;;32.75;23.02;;;;;;;0.70;100.00;99661.13;4964728;28;20232;-80
2022/03/03 01:04:49;;;;;;;32.65;23.00;;;;;;;0.67;100.00;99670.91;4979922;28;20212;-80
2022/03/03 01:07:16;;;;;;;37.28;23.77;;;;;;;0.45;100.00;99665.94;4986663;28;20192;-80
2022/03/03 01:09:42;;;;;;;31.88;21.92;;;;;;;0.70;100.00;99663.78;4974951;28;20220;-80
2022/03/03 01:12:09;;;;;;;32.42;23.00;;;;;;;0.56;100.00;99656.03;4974646;28;20594;-80
2022/03/03 01:14:36;;;;;;;33.67;23.58;;;;;;;0.49;100.00;99656.19;4980906;28;20191;-80
2022/03/03 01:17:03;;;;;;;36.03;23.00;;;;;;;0.43;100.00;99658.91;4983964;28;20196;-79
2022/03/03 01:19:31;;;;;;;33.65;23.20;;;;;;;0.31;100.00;99652.91;4970026;28;20220;-80
2022/03/03 01:21:58;;;;;;;31.08;22.63;;;;;;;0.30;100.00;99652.97;4978896;28;20260;-80
2022/03/03 01:24:24;;;;;;;35.10;22.65;;;;;;;0.27;100.00;99651.25;4977461;28;20205;-80
2022/03/03 01:26:51;;;;;;;35.08;23.33;;;;;;;0.14;100.00;99647.03;4978441;28;20196;-80
2022/03/03 01:29:18;;;;;;;32.47;22.42;;;;;;;0.05;100.00;99641.88;4971633;28;20227;-80
2022/03/03 01:31:44;;;;;;;33.88;22.75;;;;;;;0.12;100.00;99649.69;4982212;28;20296;-80
2022/03/03 01:34:12;;;;;;;36.58;21.30;;;;;;;0.06;100.00;99640.97;4975951;28;20612;-80
2022/03/03 01:36:40;;;;;;;31.55;21.65;;;;;;;0.11;100.00;99637.31;4972221;28;20547;-79
2022/03/03 01:39:07;;;;;;;33.75;23.05;;;;;;;0.08;100.00;99631.22;4975997;28;20189;-79
2022/03/03 01:41:34;;;;;;;30.15;20.90;;;;;;;0.10;100.00;99632.06;4980548;28;20203;-80
2022/03/03 01:44:01;;;;;;;31.27;21.55;;;;;;;0.18;100.00;99633.72;4975900;28;20643;-80
2022/03/03 01:46:27;;;;;;;36.05;22.95;;;;;;;0.14;100.00;99633.78;4965914;28;20303;-80
2022/03/03 01:48:54;;;;;;;34.45;22.17;;;;;;;0.04;100.00;99633.03;4973167;28;20198;-80
2022/03/03 01:51:20;;;;;;;32.88;21.38;;;;;;;0.05;100.00;99626.84;4975172;28;20291;-80
2022/03/03 01:53:48;;;;;;;30.58;21.10;;;;;;;0.14;100.00;99639.09;4984102;28;20219;-80
2022/03/03 01:56:16;;;;;;;35.47;22.13;;;;;;;0.12;100.00;99631.16;4980525;28;20249;-80
2022/03/03 01:58:43;;;;;;;36.08;22.83;;;;;;;0.22;100.00;99623.94;4979015;28;20203;-80
2022/03/03 02:01:09;;;;;;;33.83;21.88;;;;;;;0.35;100.00;99619.31;4973250;28;20675;-78
2022/03/03 02:03:36;;;;;;;30.90;22.40;;;;;;;0.22;100.00;99618.63;4977837;28;20279;-79
2022/03/03 02:06:03;;;;;;;30.73;20.30;;;;;;;0.27;100.00;99618.56;4974710;28;20671;-78
2022/03/03 02:08:29;;;;;;;33.88;21.85;;;;;;;0.26;100.00;99615.03;4976410;28;20207;-79
2022/03/03 02:10:58;;;;;;;31.73;21.08;;;;;;;0.18;100.00;99616.94;4965481;28;20193;-79
2022/03/03 02:13:24;;;;;;;30.17;20.70;;;;;;;0.31;100.00;99618.47;4967518;28;20269;-79
2022/03/03 02:15:52;;;;;;;37.42;21.10;;;;;;;0.17;100.00;99617.84;4965575;28;20220;-79
2022/03/03 02:18:18;;;;;;;31.88;21.50;;;;;;;0.09;100.00;99617.97;4985490;28;20207;-78
2022/03/03 02:20:47;;;;;;;32.70;21.63;;;;;;;0.08;100.00;99615.34;4975359;28;20252;-79
2022/03/03 02:23:14;;;;;;;33.22;20.27;;;;;;;0.03;100.00;99614.53;4964908;28;20205;-79
2022/03/03 02:25:41;;;;;;;31.60;20.38;;;;;;;0.07;100.00;99609.19;4979352;28;20220;-79
2022/03/03 02:28:08;;;;;;;34.13;21.77;;;;;;;-0.04;100.00;99611.97;4965942;28;20283;-79
2022/03/03 02:30:34;;;;;;;33.05;21.00;;;;;;;-0.04;100.00;99614.63;4975639;28;20260;-79
2022/03/03 02:33:01;;;;;;;28.83;20.73;;;;;;;-0.02;100.00;99615.47;4979870;28;20256;-79
2022/03/03 02:35:29;;;;;;;29.92;20.40;;;;;;;-0.09;100.00;99615.56;4969775;28;20238;-79
2022/03/03 02:37:57;;;;;;;34.95;22.65;;;;;;;-0.01;100.00;99611.91;4982721;28;20195;-80
2022/03/03 02:40:24;;;;;;;33.25;21.10;;;;;;;0.06;100.00;99615.34;4977007;28;20192;-80
2022/03/03 02:42:51;;;;;;;32.42;20.42;;;;;;;0.03;100.00;99606.59;4974126;28;20260;-80
2022/03/03 02:45:18;;;;;;;30.80;19.63;;;;;;;0.03;100.00;99615.41;4968265;28;20586;-79
2022/03/03 02:47:47;;;;;;;33.13;20.88;;;;;;;-0.06;100.00;99605.81;4966584;28;20276;-79
2022/03/03 02:50:14;;;;;;;29.67;20.55;;;;;;;-0.15;100.00;99597.16;4976876;28;20279;-79
2022/03/03 02:52:41;;;;;;;31.52;20.70;;;;;;;-0.10;100.00;99596.19;4969505;28;20292;-79
2022/03/03 02:55:12;;;;;;;33.40;22.15;;;;;;;0.01;100.00;99598.66;4980978;28;20283;-79
2022/03/03 02:57:57;;;;;;;33.15;21.92;;;;;;;0.02;100.00;99602.19;4973296;28;20196;-79
2022/03/03 03:00:26;;;;;;;29.05;19.40;;;;;;;-0.04;100.00;99597.88;4972656;28;20192;-79
2022/03/03 03:02:53;;;;;;;29.20;19.80;;;;;;;0.01;100.00;99600.44;4972552;28;20267;-80
2022/03/03 03:05:19;;;;;;;26.30;19.75;;;;;;;-0.02;100.00;99599.59;4976564;28;20240;-79
2022/03/03 03:07:46;;;;;;;33.50;21.13;;;;;;;-0.01;100.00;99587.22;4973772;28;20366;-79
2022/03/03 03:10:14;;;;;;;30.73;19.65;;;;;;;-0.11;100.00;99585.63;4969658;28;20231;-79
2022/03/03 03:12:41;;;;;;;31.75;20.75;;;;;;;0.02;100.00;99588.94;4971674;28;20217;-79
2022/03/03 03:15:09;;;;;;;26.83;19.63;;;;;;;0.09;100.00;99588.84;4970872;28;20550;-79
2022/03/03 03:17:36;;;;;;;27.77;20.60;;;;;;;0.05;100.00;99578.34;4975122;28;20219;-79
2022/03/03 03:20:03;;;;;;;30.23;20.27;;;;;;;0.14;100.00;99580.84;4974640;28;20227;-79
2022/03/03 03:22:30;;;;;;;31.58;21.63;;;;;;;0.18;100.00;99572.81;4978037;28;20191;-79
2022/03/03 03:24:56;;;;;;;30.00;20.60;;;;;;;0.14;100.00;99568.47;4963596;29;20204;-79
2022/03/03 03:27:24;;;;;;;28.10;19.60;;;;;;;0.03;100.00;99569.53;4963396;29;20602;-79
2022/03/03 03:29:51;;;;;;;29.48;19.90;;;;;;;0.23;100.00;99574.47;4963743;29;20285;-80
2022/03/03 03:32:18;;;;;;;31.30;19.73;;;;;;;0.01;100.00;99566.03;4963406;28;20331;-79
2022/03/03 03:34:44;;;;;;;35.22;21.27;;;;;;;0.02;100.00;99570.41;4963649;29;20295;-78
2022/03/03 03:37:11;;;;;;;31.75;19.83;;;;;;;0.18;100.00;99561.31;4963548;29;20295;-79
2022/03/03 03:39:37;;;;;;;37.15;23.00;;;;;;;0.37;100.00;99564.56;4964773;29;20284;-79
2022/03/03 03:42:05;;;;;;;35.22;24.23;;;;;;;0.37;100.00;99561.91;4962409;29;20199;-78
2022/03/03 03:44:34;;;;;;;32.92;22.05;;;;;;;0.40;100.00;99556.53;4963107;29;20252;-79
2022/03/03 03:47:00;;;;;;;30.50;21.52;;;;;;;0.20;100.00;99565.72;4961944;29;20197;-80
2022/03/03 03:49:28;;;;;;;29.00;20.05;;;;;;;0.12;100.00;99564.09;4963011;29;20216;-78
2022/03/03 03:51:54;;;;;;;31.42;20.67;;;;;;;-0.08;100.00;99567.03;4962649;29;20196;-79
2022/03/03 03:54:21;;;;;;;29.73;19.15;;;;;;;0.03;100.00;99565.09;4962032;28;20303;-79
2022/03/03 03:56:48;;;;;;;29.73;18.83;;;;;;;-0.01;100.00;99560.75;4961734;29;20191;-79
2022/03/03 03:59:14;;;;;;;30.23;19.70;;;;;;;-0.35;100.00;99561.25;4962530;29;20279;-80
2022/03/03 04:01:42;;;;;;;28.10;19.15;;;;;;;-0.61;100.00;99564.28;4962583;29;20211;-80
2022/03/03 04:04:09;;;;;;;28.45;19.45;;;;;;;-0.65;100.00;99568.72;4964571;29;20195;-80
2022/03/03 04:06:36;;;;;;;33.58;20.38;;;;;;;-0.74;100.00;99562.69;4966788;29;20297;-80
2022/03/03 04:09:04;;;;;;;26.40;19.95;;;;;;;-0.67;100.00;99559.06;4968394;29;20195;-80
2022/03/03 04:11:30;;;;;;;30.25;19.80;;;;;;;-0.65;100.00;99549.34;4967755;29;20629;-78
2022/03/03 04:13:57;;;;;;;33.08;20.48;;;;;;;-0.48;100.00;99549.09;4964936;29;20219;-79
2022/03/03 04:16:24;;;;;;;30.02;20.02;;;;;;;-0.48;100.00;99547.31;4964265;29;20248;-79
2022/03/03 04:18:52;;;;;;;30.30;20.67;;;;;;;-0.64;100.00;99554.59;4964132;29;20188;-79
2022/03/03 04:21:19;;;;;;;27.95;19.92;;;;;;;-0.46;100.00;99548.19;4965682;29;20661;-79
2022/03/03 04:23:46;;;;;;;28.33;19.83;;;;;;;-0.27;100.00;99545.25;4966977;29;20196;-79
2022/03/03 04:26:12;;;;;;;30.13;20.63;;;;;;;-0.26;100.00;99552.31;4966166;29;20271;-79
2022/03/03 04:28:39;;;;;;;31.42;20.60;;;;;;;-0.31;100.00;99544.44;4958873;29;20220;-80
2022/03/03 04:31:06;;;;;;;37.67;20.73;;;;;;;-0.31;100.00;99546.22;4974861;28;20224;-79
2022/03/03 04:33:32;;;;;;;31.08;20.05;;;;;;;-0.25;100.00;99533.78;4981171;28;20276;-79
2022/03/03 04:36:00;;;;;;;34.60;22.52;;;;;;;-0.14;100.00;99541.53;4983577;28;20200;-79
2022/03/03 04:38:27;;;;;;;33.85;20.88;;;;;;;-0.15;100.00;99538.94;4983266;28;20714;-79
2022/03/03 04:40:54;;;;;;;33.10;20.88;;;;;;;-0.25;100.00;99538.19;4986804;28;20192;-79
2022/03/03 04:43:20;;;;;;;35.58;20.10;;;;;;;-0.47;100.00;99537.63;4972692;28;20217;-79
2022/03/03 04:45:47;;;;;;;31.38;20.55;;;;;;;-0.47;100.00;99533.22;4977900;28;20247;-79
2022/03/03 04:48:14;;;;;;;29.92;20.23;;;;;;;-0.39;100.00;99535.75;4979458;28;20277;-79
2022/03/03 04:50:40;;;;;;;33.03;20.55;;;;;;;-0.48;100.00;99531.44;4977444;28;20189;-79
2022/03/03 04:53:08;;;;;;;36.42;21.50;;;;;;;-0.47;100.00;99525.28;4977284;28;20223;-80
2022/03/03 04:55:35;;;;;;;32.30;21.17;;;;;;;-0.34;100.00;99531.28;4971737;28;20260;-80
2022/03/03 04:58:02;;;;;;;30.27;20.33;;;;;;;-0.31;100.00;99533.88;4984555;28;20199;-80
2022/03/03 05:00:28;;;;;;;36.17;20.83;;;;;;;-0.40;100.00;99528.72;4986328;28;20196;-80
2022/03/03 05:02:55;;;;;;;29.92;20.05;;;;;;;-0.37;100.00;99531.31;4977648;28;20619;-80
2022/03/03 05:05:22;;;;;;;28.88;19.80;;;;;;;-0.09;100.00;99525.56;4976298;28;20209;-80
2022/03/03 05:07:48;;;;;;;32.67;19.92;;;;;;;0.12;100.00;99522.59;4980505;28;20206;-80
2022/03/03 05:10:16;;;;;;;30.55;19.40;;;;;;;0.17;100.00;99526.03;4974867;28;20718;-79
2022/03/03 05:12:43;;;;;;;30.95;20.65;;;;;;;0.27;100.00;99513.53;4972178;28;20635;-80
2022/03/03 05:15:10;;;;;;;32.17;20.30;;;;;;;0.26;100.00;99524.13;4983751;28;20228;-80
2022/03/03 05:17:37;;;;;;;36.92;21.38;;;;;;;-0.03;100.00;99521.06;4973909;28;20217;-80
2022/03/03 05:20:04;;;;;;;29.85;20.05;;;;;;;-0.03;100.00;99522.84;4973935;28;20249;-79
2022/03/03 05:22:31;;;;;;;37.42;23.98;;;;;;;-0.01;100.00;99515.75;4971993;28;20683;-79
2022/03/03 05:24:58;;;;;;;28.42;20.17;;;;;;;-0.16;100.00;99518.63;4974736;28;20232;-79
2022/03/03 05:27:26;;;;;;;30.85;21.05;;;;;;;-0.32;100.00;99513.56;4970822;28;20272;-80
2022/03/03 05:29:52;;;;;;;28.48;19.17;;;;;;;-0.36;100.00;99513.66;4972601;28;20284;-80
2022/03/03 05:32:19;;;;;;;30.73;21.60;;;;;;;-0.35;100.00;99516.28;4973801;28;20243;-79
2022/03/03 05:34:46;;;;;;;29.05;20.75;;;;;;;-0.32;100.00;99515.34;4966155;28;20193;-80
2022/03/03 05:37:15;;;;;;;31.08;20.33;;;;;;;-0.44;100.00;99519.94;4973158;28;20253;-80
2022/03/03 05:39:43;;;;;;;28.13;20.05;;;;;;;-0.53;100.00;99512.13;4973583;28;20265;-80
2022/03/03 05:42:12;;;;;;;32.15;19.75;;;;;;;-0.45;100.00;99514.69;4967829;28;20608;-79
2022/03/03 05:44:40;;;;;;;33.70;20.50;;;;;;;-0.29;100.00;99505.63;4978388;28;20264;-81
2022/03/03 05:47:08;;;;;;;30.95;21.10;;;;;;;-0.27;100.00;99508.22;4955864;29;20228;-80
2022/03/03 05:49:36;;;;;;;35.28;22.98;;;;;;;-0.42;100.00;99509.34;4962072;29;20204;-80
2022/03/03 05:52:03;;;;;;;33.95;22.83;;;;;;;-0.36;100.00;99496.03;4963177;28;20289;-79
2022/03/03 05:54:30;;;;;;;29.88;21.40;;;;;;;-0.38;100.00;99496.97;4982172;28;20256;-79
2022/03/03 05:56:57;;;;;;;35.35;21.35;;;;;;;-0.40;100.00;99491.69;4978784;28;20271;-80
2022/03/03 05:59:24;;;;;;;31.55;20.23;;;;;;;-0.35;100.00;99491.59;4983197;28;20259;-80
2022/03/03 06:01:52;;;;;;;31.25;21.35;;;;;;;-0.31;100.00;99491.53;4982996;28;20258;-80
2022/03/03 06:04:20;;;;;;;34.17;21.85;;;;;;;-0.13;100.00;99500.94;4976577;28;20689;-79
2022/03/03 06:06:54;;;;;;;35.50;20.33;;;;;;;-0.10;100.00;99489.44;4964352;28;20218;-79
2022/03/03 06:09:25;;;;;;;31.83;20.17;;;;;;;0.05;100.00;99494.47;4960284;28;20206;-79
2022/03/03 06:11:58;;;;;;;31.00;21.33;;;;;;;-0.18;100.00;99493.97;4964784;28;20208;-80
2022/03/03 06:14:36;;;;;;;31.30;20.30;;;;;;;0.00;100.00;99491.03;4970814;28;20202;-79
2022/03/03 06:17:05;;;;;;;35.03;21.52;;;;;;;0.16;100.00;99494.31;4967056;28;20214;-79
2022/03/03 06:19:39;;;;;;;32.40;21.90;;;;;;;0.26;100.00;99490.56;4977229;28;20199;-80
2022/03/03 06:22:06;;;;;;;33.15;21.73;;;;;;;0.17;100.00;99490.75;4962804;28;20180;-80
2022/03/03 06:24:33;;;;;;;47.75;23.20;;;;;;;0.03;100.00;99490.97;4975982;28;20196;-80
2022/03/03 06:26:59;;;;;;;36.55;22.02;;;;;;;0.07;100.00;99489.13;4975615;28;20213;-79
2022/03/03 06:29:26;;;;;;;30.38;20.77;;;;;;;0.11;100.00;99488.19;4982188;28;20231;-80
2022/03/03 06:31:53;;;;;;;37.03;23.27;;;;;;;-0.14;100.00;99483.31;4972775;28;20248;-81
2022/03/03 06:34:24;;;;;;;38.30;22.30;;;;;;;-0.03;100.00;99491.06;4961569;28;20189;-82
2022/03/03 06:36:50;;;;;;;33.53;22.75;;;;;;;-0.12;100.00;99485.94;4978958;28;20259;-82
2022/03/03 06:39:17;;;;;;;30.45;20.80;;;;;;;-0.21;100.00;99481.66;4964938;28;20224;-82
2022/03/03 06:41:44;;;;;;;31.85;22.08;;;;;;;-0.34;100.00;99486.31;4969274;28;20260;-81
2022/03/03 06:44:10;;;;;;;38.33;24.67;;;;;;;-0.11;100.00;99482.41;4982208;28;20223;-81
2022/03/03 06:46:37;;;;;;;31.42;22.95;;;;;;;-0.06;100.00;99488.50;4978850;28;20215;-80
2022/03/03 06:49:05;;;;;;;32.65;21.60;;;;;;;0.03;100.00;99493.63;4987809;28;20259;-80
2022/03/03 06:51:39;;;;;;;32.28;23.67;;;;;;;-0.12;100.00;99486.81;4971466;28;20197;-81
2022/03/03 06:54:07;;;;;;;34.55;22.35;;;;;;;0.08;100.00;99490.91;4972909;28;20192;-82
2022/03/03 06:56:37;;;;;;;29.80;21.35;;;;;;;0.15;100.00;99490.75;4987929;28;20192;-80
2022/03/03 06:59:04;;;;;;;38.97;22.48;;;;;;;0.20;100.00;99499.50;4983494;28;20197;-81
2022/03/03 07:01:31;;;;;;;33.67;23.08;;;;;;;0.44;100.00;99493.78;4970449;28;20196;-81
2022/03/03 07:03:58;;;;;;;34.42;24.35;;;;;;;0.35;100.00;99494.84;4970500;28;20648;-80
2022/03/03 07:06:25;;;;;;;33.33;22.08;;;;;;;0.40;100.00;99499.13;4969231;28;20241;-80
2022/03/03 07:08:55;;;;;;;40.40;26.00;;;;;;;0.40;100.00;99498.25;4983105;28;20199;-80
2022/03/03 07:11:23;;;;;;;39.03;24.40;;;;;;;0.36;100.00;99499.22;4975222;28;20188;-80
2022/03/03 07:13:50;;;;;;;36.10;22.65;;;;;;;0.30;100.00;99489.63;4986740;28;20253;-80
2022/03/03 07:16:27;;;;;;;38.20;23.65;;;;;;;0.55;100.00;99483.88;4975919;28;20659;-80
2022/03/03 07:18:56;;;;;;;32.50;22.70;;;;;;;0.64;100.00;99488.13;4969736;28;20192;-81
2022/03/03 07:21:30;;;;;;;37.65;24.65;;;;;;;0.68;100.00;99488.03;4975380;28;20188;-81
2022/03/03 07:24:03;;;;;;;36.45;23.33;;;;;;;0.82;100.00;99479.78;4974630;28;20188;-81
2022/03/03 07:26:32;;;;;;;36.25;25.20;;;;;;;0.70;100.00;99487.97;4979334;28;20217;-80
2022/03/03 07:29:04;;;;;;;35.22;23.67;;;;;;;0.82;100.00;99487.75;4979853;28;20256;-80
2022/03/03 07:31:39;;;;;;;34.78;23.00;;;;;;;0.75;100.00;99484.34;4983496;28;20231;-81
2022/03/03 07:34:09;;;;;;;35.25;23.98;;;;;;;0.55;100.00;99482.09;4973071;28;20207;-80
2022/03/03 07:36:42;;;;;;;40.22;23.50;;;;;;;0.55;100.00;99483.88;4965935;29;20608;-81
2022/03/03 07:39:16;;;;;;;36.58;23.45;;;;;;;0.72;100.00;99480.88;4968957;28;20189;-81
2022/03/03 07:41:45;;;;;;;34.03;22.73;;;;;;;0.98;100.00;99478.56;4956064;29;20647;-83
2022/03/03 07:44:13;;;;;;;41.30;23.55;;;;;;;0.99;100.00;99469.69;4969020;28;20603;-85
2022/03/03 07:46:40;;;;;;;32.15;22.17;;;;;;;1.17;100.00;99479.03;4960083;28;20310;-85
2022/03/03 07:49:09;;;;;;;33.05;22.45;;;;;;;1.25;100.00;99473.59;4960420;28;20192;-86
2022/03/03 07:51:37;;;;;;;34.65;23.50;;;;;;;1.31;100.00;99476.09;4961964;28;20204;-83
2022/03/03 07:54:04;;;;;;;35.47;23.40;;;;;;;1.48;100.00;99473.06;4966622;28;20267;-82
2022/03/03 07:56:44;;;;;;;39.85;22.80;;;;;;;1.41;100.00;99474.97;4970874;28;20268;-83
2022/03/03 07:59:12;;;;;;;33.97;22.55;;;;;;;1.56;99.16;99480.81;4965015;28;20222;-83
2022/03/03 08:01:39;;;;;;;32.85;22.13;;;;;;;1.51;99.16;99485.38;4958489;28;20587;-78
2022/03/03 08:06:55;;;;;;;36.78;25.30;;;;;;;1.86;97.03;99487.19;4947217;28;20315;-78
2022/03/03 08:09:24;;;;;;;42.10;24.08;;;;;;;2.09;94.96;99487.47;4967929;28;20184;-78
2022/03/03 08:11:54;;;;;;;37.45;22.20;;;;;;;2.09;92.62;99489.28;4956843;29;20272;-76
2022/03/03 08:14:21;;;;;;;30.40;21.35;;;;;;;2.19;91.73;99482.81;4956571;28;20280;-78
2022/03/03 08:16:48;;;;;;;31.42;21.35;;;;;;;2.37;90.77;99475.28;4956159;29;20192;-78
2022/03/03 08:19:15;;;;;;;37.42;23.33;;;;;;;2.49;91.00;99482.94;4957201;29;20663;-79
2022/03/03 08:21:44;;;;;;;37.03;24.38;;;;;;;2.87;89.25;99487.19;4956923;29;20205;-77
2022/03/03 08:24:12;;;;;;;29.98;21.90;;;;;;;3.15;85.94;99490.84;4957123;29;20303;-78
2022/03/03 08:26:40;;;;;;;38.65;23.55;;;;;;;3.08;85.91;99488.34;4953724;28;20211;-76
2022/03/03 08:29:08;;;;;;;35.30;22.08;;;;;;;3.21;84.04;99475.56;4956184;28;21053;-77
2022/03/03 08:31:38;;;;;;;30.85;21.80;;;;;;;3.48;81.21;99470.28;4968990;28;20268;-78
2022/03/03 08:34:12;;;;;;;30.85;23.02;;;;;;;3.55;79.44;99475.38;4937372;29;20225;-76
2022/03/03 08:36:45;;;;;;;30.38;21.60;;;;;;;3.43;79.79;99473.09;4955022;28;20219;-77
2022/03/03 08:39:15;;;;;;;34.85;22.65;;;;;;;3.65;78.16;99459.13;4950091;29;20189;-78
2022/03/03 08:41:43;;;;;;;34.50;22.25;;;;;;;3.62;78.22;99453.88;4948165;28;20197;-81
2022/03/03 08:44:13;;;;;;;29.95;21.30;;;;;;;3.72;77.56;99452.66;4969912;28;20204;-77
2022/03/03 08:46:42;;;;;;;26.38;20.83;;;;;;;3.89;76.21;99455.66;4967046;28;20567;-77
2022/03/03 08:49:10;;;;;;;35.70;22.13;;;;;;;4.20;74.64;99451.94;4969227;28;20282;-77
2022/03/03 08:51:37;;;;;;;34.97;22.42;;;;;;;4.28;72.92;99444.56;4956290;28;20630;-77
2022/03/03 08:54:05;;;;;;;38.22;22.17;;;;;;;4.38;71.90;99445.09;4958728;28;20204;-77
2022/03/03 08:56:32;;;;;;;32.55;22.45;;;;;;;4.55;71.36;99449.84;4962292;28;20290;-77
2022/03/03 08:58:59;;;;;;;31.88;23.60;;;;;;;4.75;69.20;99443.78;4957165;28;20209;-77
2022/03/03 09:01:27;;;;;;;31.60;21.23;;;;;;;4.83;69.17;99447.03;4962590;28;20191;-77
2022/03/03 09:03:54;;;;;;;32.75;22.45;;;;;;;4.77;68.76;99452.59;4956268;29;20716;-77
2022/03/03 09:06:20;;;;;;;38.70;24.17;;;;;;;4.99;68.19;99447.31;4956328;29;20187;-77
2022/03/03 09:08:47;;;;;;;28.42;21.45;;;;;;;5.01;67.36;99450.81;4955945;29;20196;-77
2022/03/03 09:11:15;;;;;;;31.20;20.83;;;;;;;5.00;66.97;99454.41;4956308;28;20215;-76
2022/03/03 09:13:41;;;;;;;29.27;21.20;;;;;;;5.06;67.01;99455.97;4959456;28;20216;-76
2022/03/03 09:16:08;;;;;;;31.50;21.50;;;;;;;5.09;67.44;99454.06;4962092;28;20218;-77
2022/03/03 09:18:36;;;;;;;32.03;21.23;;;;;;;5.28;65.83;99464.91;4974381;28;20198;-77
2022/03/03 09:21:03;;;;;;;29.85;22.33;;;;;;;5.29;65.93;99457.75;4959911;28;20283;-76
2022/03/03 09:23:30;;;;;;;29.42;22.95;;;;;;;5.48;64.45;99456.13;4957719;28;20183;-77
2022/03/03 09:25:56;;;;;;;27.67;21.63;;;;;;;5.54;63.62;99454.97;4975066;28;20208;-78
2022/03/03 09:28:23;;;;;;;32.35;22.15;;;;;;;5.69;63.27;99456.19;4965334;28;20211;-77
2022/03/03 09:30:51;;;;;;;29.98;21.17;;;;;;;6.02;61.13;99457.50;4965931;28;20235;-77
2022/03/03 09:33:18;;;;;;;27.17;21.85;;;;;;;6.12;59.42;99457.97;4963995;28;20201;-77
2022/03/03 09:35:46;;;;;;;27.50;20.92;;;;;;;6.37;58.35;99454.25;4957295;28;20198;-77
2022/03/03 09:38:13;;;;;;;29.17;22.35;;;;;;;6.54;57.70;99454.41;4955075;28;20342;-77
2022/03/03 09:40:41;;;;;;;29.65;21.92;;;;;;;6.41;58.45;99454.06;4955359;28;20220;-77
2022/03/03 09:43:08;;;;;;;33.50;21.27;;;;;;;6.18;59.21;99449.72;4955028;29;20726;-77
2022/03/03 09:45:37;;;;;;;32.45;22.30;;;;;;;6.47;59.13;99445.78;4971343;28;20538;-76
2022/03/03 09:48:05;;;;;;;29.75;21.60;;;;;;;6.71;58.21;99448.28;4974072;28;20534;-76
2022/03/03 09:50:35;;;;;;;27.02;19.67;;;;;;;6.96;56.05;99439.16;4953047;28;20200;-76
2022/03/03 09:53:06;;;;;;;29.35;21.27;;;;;;;7.03;56.03;99440.63;4946285;28;20659;-77
2022/03/03 09:55:32;;;;;;;29.65;20.60;;;;;;;7.19;54.54;99443.44;4957853;28;20710;-77
2022/03/03 09:57:59;;;;;;;32.13;23.58;;;;;;;7.06;54.68;99451.19;4964509;28;20672;-75
2022/03/03 10:00:29;;;;;;;31.88;21.17;;;;;;;6.91;55.05;99457.25;4958322;28;20207;-77
2022/03/03 10:02:59;;;;;;;29.40;20.33;;;;;;;6.87;54.91;99454.72;4954482;28;20205;-77
2022/03/03 10:05:31;;;;;;;27.70;21.25;;;;;;;7.04;54.62;99453.06;4952418;28;20640;-77
2022/03/03 10:08:04;;;;;;;31.92;21.85;;;;;;;7.07;53.98;99442.22;4938505;29;20212;-78
2022/03/03 10:10:31;;;;;;;26.15;20.60;;;;;;;7.45;53.71;99442.22;4950237;29;20193;-77
2022/03/03 10:12:59;;;;;;;30.55;21.70;;;;;;;7.82;52.15;99441.28;4949257;28;20240;-79
2022/03/03 10:15:27;;;;;;;27.55;20.27;;;;;;;7.90;51.39;99443.63;4954000;29;20304;-78
2022/03/03 10:17:58;;;;;;;25.08;20.05;;;;;;;8.09;50.63;99449.78;4951630;29;20211;-77
2022/03/03 10:20:25;;;;;;;26.85;21.02;;;;;;;8.00;49.95;99446.69;4954576;29;20197;-78
2022/03/03 10:22:57;;;;;;;27.77;20.50;;;;;;;7.83;50.54;99442.19;4964732;28;20279;-77
2022/03/03 10:25:34;;;;;;;27.13;20.00;;;;;;;8.26;49.78;99440.88;4968317;28;20192;-77
2022/03/03 10:28:11;;;;;;;30.70;21.45;;;;;;;8.47;48.35;99435.41;4972108;28;20222;-77
2022/03/03 10:30:49;;;;;;;33.28;22.20;;;;;;;8.66;47.85;99438.88;4967690;28;20591;-77
2022/03/03 10:33:18;;;;;;;25.65;20.60;;;;;;;8.86;46.93;99435.09;4973469;28;20622;-77
2022/03/03 10:35:58;;;;;;;30.02;21.38;;;;;;;8.95;46.37;99428.34;4972881;28;20197;-77
2022/03/03 10:38:25;;;;;;;27.92;20.30;;;;;;;9.06;45.53;99428.66;4972184;28;20188;-77
2022/03/03 10:40:53;;;;;;;24.65;19.70;;;;;;;9.28;45.29;99431.03;4973275;28;20287;-78
2022/03/03 10:43:20;;;;;;;28.17;19.70;;;;;;;9.17;45.25;99436.97;4972817;28;20272;-77
2022/03/03 10:45:59;;;;;;;25.52;19.00;;;;;;;9.15;44.93;99430.81;4973344;28;20212;-78
2022/03/03 10:48:27;;;;;;;32.17;20.08;;;;;;;9.05;45.71;99426.94;4973055;28;20651;-77
2022/03/03 10:50:55;;;;;;;29.90;20.65;;;;;;;8.66;45.68;99419.19;4972329;28;20221;-78
2022/03/03 10:53:24;;;;;;;31.00;20.13;;;;;;;8.73;45.64;99426.84;4973283;28;20624;-77
2022/03/03 10:56:04;;;;;;;26.02;19.20;;;;;;;8.74;45.01;99423.19;4972175;28;20200;-77
2022/03/03 10:58:52;;;;;;;27.85;19.92;;;;;;;9.20;45.01;99425.19;4967850;28;20200;-76
2022/03/03 11:01:22;;;;;;;27.10;19.83;;;;;;;9.43;44.25;99413.19;4971083;28;20185;-76
2022/03/03 11:03:50;;;;;;;30.08;20.85;;;;;;;9.47;43.47;99421.94;4971989;28;20194;-75
2022/03/03 11:06:19;;;;;;;29.20;20.35;;;;;;;9.78;43.43;99411.16;4971326;28;20695;-76
2022/03/03 11:08:47;;;;;;;27.05;19.23;;;;;;;9.54;43.35;99409.88;4970179;28;20241;-77
2022/03/03 11:11:15;;;;;;;27.83;19.42;;;;;;;9.27;43.41;99407.81;4972603;28;20478;-76
2022/03/03 11:13:43;;;;;;;28.35;21.45;;;;;;;9.46;43.39;99406.78;4972477;28;20211;-76
2022/03/03 11:16:10;;;;;;;30.13;20.50;;;;;;;9.55;43.62;99406.25;4972457;28;20238;-75
2022/03/03 11:18:37;;;;;;;32.00;23.33;;;;;;;9.54;43.15;99405.38;4972480;28;20624;-77
2022/03/03 11:21:05;;;;;;;27.58;20.55;;;;;;;9.81;43.01;99402.03;4972541;28;20206;-77
2022/03/03 11:23:43;;;;;;;27.17;19.90;;;;;;;9.86;42.77;99401.78;4972533;28;20199;-75